createdAt,value
2022-09-21T00:00:22.798Z,7.26
2022-09-21T00:05:41.307Z,7.19
2022-09-21T00:11:00.819Z,7.11
2022-09-21T00:16:19.908Z,7.05
2022-09-21T00:21:39.879Z,7.01
2022-09-21T00:26:58.643Z,6.9
2022-09-21T00:32:18.862Z,6.84
2022-09-21T00:37:37.653Z,6.74
2022-09-21T00:42:57.849Z,6.76
2022-09-21T00:49:32.016Z,6.71
2022-09-21T00:53:37.006Z,6.61
2022-09-21T00:58:56.026Z,6.51
2022-09-21T01:04:14.262Z,6.49
2022-09-21T01:09:33.750Z,6.46
2022-09-21T01:14:53.210Z,6.36
2022-09-21T01:20:12.386Z,6.32
2022-09-21T01:25:32.066Z,6.32
2022-09-21T01:30:51.548Z,6.34
2022-09-21T01:36:10.969Z,6.3
2022-09-21T01:41:30.666Z,6.25
2022-09-21T01:48:04.842Z,6.16
2022-09-21T01:52:10.367Z,6.16
2022-09-21T01:57:29.879Z,6.12
2022-09-21T02:06:02.955Z,6.08
2022-09-21T02:08:06.366Z,6.03
2022-09-21T02:13:26.426Z,6.02
2022-09-21T02:18:44.748Z,6.01
2022-09-21T02:24:04.972Z,5.87
2022-09-21T02:29:24.666Z,5.72
2022-09-21T02:34:43.978Z,5.6
2022-09-21T02:40:03.691Z,5.58
2022-09-21T02:45:22.339Z,5.5
2022-09-21T02:50:40.549Z,5.48
2022-09-21T02:56:00.178Z,5.5
2022-09-21T03:01:20.558Z,5.38
2022-09-21T03:06:39.394Z,5.37
2022-09-21T03:11:58.377Z,5.36
2022-09-21T03:17:18.735Z,5.36
2022-09-21T03:22:38.139Z,5.31
2022-09-21T03:27:56.363Z,5.26
2022-09-21T03:33:15.975Z,5.19
2022-09-21T03:38:35.565Z,5.15
2022-09-21T03:43:54.623Z,5.09
2022-09-21T03:49:14.329Z,5.03
2022-09-21T03:54:33.138Z,4.96
2022-09-21T03:59:52.079Z,4.92
2022-09-21T04:05:12.489Z,4.9
2022-09-21T04:10:30.968Z,4.83
2022-09-21T04:15:50.878Z,4.86
2022-09-21T04:22:25.001Z,4.8
2022-09-21T04:26:29.691Z,4.71
2022-09-21T04:33:28.277Z,4.67
2022-09-21T04:37:44.817Z,4.61
2022-09-21T04:42:29.052Z,4.58
2022-09-21T04:47:48.531Z,4.54
2022-09-21T04:53:06.086Z,4.51
2022-09-21T04:58:25.993Z,4.44
2022-09-21T05:03:44.309Z,4.4
2022-09-21T05:09:04.052Z,4.41
2022-09-21T05:14:22.583Z,4.51
2022-09-21T05:19:50.962Z,4.58
2022-09-21T05:25:01.850Z,4.52
2022-09-21T05:30:21.240Z,4.48
2022-09-21T05:35:39.990Z,4.54
2022-09-21T05:40:59.346Z,4.57
2022-09-21T05:46:18.426Z,4.59
2022-09-21T05:51:38.006Z,4.57
2022-09-21T05:56:56.189Z,4.64
2022-09-21T05:57:21.247Z,4.79
2022-09-21T06:02:40.165Z,4.67
2022-09-21T06:07:59.355Z,4.71
2022-09-21T06:13:19.154Z,4.71
2022-09-21T06:18:39.190Z,4.65
2022-09-21T06:23:58.517Z,4.79
2022-09-21T06:30:32.731Z,4.82
2022-09-21T06:39:57.724Z,4.82
2022-09-21T06:45:16.332Z,4.92
2022-09-21T06:50:35.772Z,5.06
2022-09-21T06:55:55.134Z,5.13
2022-09-21T07:01:13.967Z,5.19
2022-09-21T07:06:33.086Z,5.23
2022-09-21T07:11:51.874Z,5.36
2022-09-21T07:17:15.442Z,5.4
2022-09-21T07:22:30.367Z,5.47
2022-09-21T07:29:04.663Z,5.47
2022-09-21T07:38:29.338Z,5.75
2022-09-21T07:43:48.770Z,6.03
2022-09-21T07:52:21.834Z,6.05
2022-09-21T07:54:25.385Z,6.25
2022-09-21T08:01:24.053Z,6.43
2022-09-21T08:05:04.872Z,6.43
2022-09-21T08:13:37.930Z,6.56
2022-09-21T08:22:10.985Z,6.92
2022-09-21T08:26:21.596Z,7.01
2022-09-21T08:34:54.667Z,7.08
2022-09-21T08:47:38.239Z,7.32
2022-09-21T08:52:57.805Z,7.52
2022-09-21T08:58:16.145Z,7.67
2022-09-21T09:05:14.720Z,7.97
2022-09-21T09:08:55.349Z,8.1
2022-09-21T09:17:28.411Z,8.34
2022-09-21T09:24:52.839Z,8.66
2022-09-21T09:30:11.734Z,9.1
2022-09-21T09:35:31.429Z,9.41
2022-09-21T09:40:50.778Z,9.6
2022-09-21T09:46:12.556Z,9.97
2022-09-21T09:51:28.994Z,10.14
2022-09-21T09:56:48.518Z,10.94
2022-09-21T10:02:07.588Z,11.67
2022-09-21T10:08:41.659Z,12.34
2022-09-21T10:12:46.775Z,12.97
2022-09-21T10:21:19.819Z,13.64
2022-09-21T10:23:24.228Z,14.3
2022-09-21T10:34:02.930Z,15.46
2022-09-21T10:39:22.500Z,15.42
2022-09-21T10:44:41.855Z,15.67
2022-09-21T10:50:00.567Z,15.53
2022-09-21T10:55:19.758Z,15.34
2022-09-21T11:00:38.493Z,15.7
2022-09-21T11:05:57.628Z,16.14
2022-09-21T11:11:17.207Z,15.94
2022-09-21T11:16:36.689Z,15.43
2022-09-21T11:21:55.940Z,14.85
2022-09-21T11:27:15.290Z,15.4
2022-09-21T11:32:45.503Z,16.27
2022-09-21T11:37:52.059Z,16.32
2022-09-21T11:44:50.671Z,16.78
2022-09-21T11:49:07.192Z,17.2
2022-09-21T12:04:28.894Z,17.48
2022-09-21T12:15:07.144Z,17.06
2022-09-21T12:23:40.123Z,16.99
2022-09-21T12:31:04.879Z,16.45
2022-09-21T12:39:37.857Z,16.51
2022-09-21T12:47:01.730Z,17.24
2022-09-21T12:53:35.848Z,17.64
2022-09-21T12:57:53.947Z,17.73
2022-09-21T13:06:15.260Z,17.84
2022-09-21T13:08:21.349Z,17.89
2022-09-21T13:13:40.404Z,17.89
2022-09-21T13:19:09.801Z,17.92
2022-09-21T13:27:32.861Z,17.4
2022-09-21T13:29:38.430Z,17.75
2022-09-21T13:40:17.040Z,17.87
2022-09-21T13:45:36.337Z,17.53
2022-09-21T13:54:09.298Z,16.98
2022-09-21T13:56:13.337Z,17.29
2022-09-21T14:03:11.927Z,17.33
2022-09-21T14:12:12.335Z,16.82
2022-09-21T14:17:31.710Z,17.04
2022-09-21T14:22:50.776Z,17.58
2022-09-21T14:28:10.384Z,17.91
2022-09-21T14:33:28.896Z,17.81
2022-09-21T14:38:47.603Z,17.68
2022-09-21T14:45:21.699Z,17.82
2022-09-21T14:49:37.097Z,17.62
2022-09-21T14:56:35.747Z,17.75
2022-09-21T15:00:05.738Z,17.23
2022-09-21T15:16:03.276Z,16.98
2022-09-21T15:26:41.293Z,17.29
2022-09-21T15:32:00.651Z,17.12
2022-09-21T15:37:19.461Z,16.87
2022-09-21T15:42:38.912Z,16.79
2022-09-21T15:47:58.104Z,16.75
2022-09-21T15:53:16.540Z,16.92
2022-09-21T15:58:35.464Z,16.92
2022-09-21T16:03:57.033Z,16.76
2022-09-21T16:09:13.916Z,16.64
2022-09-21T16:15:48.128Z,16.46
2022-09-21T16:19:53.303Z,16.2
2022-09-21T16:25:12.102Z,16.14
2022-09-21T16:33:45.155Z,16.2
2022-09-21T16:38:00.540Z,15.96
2022-09-21T16:47:42.408Z,15.48
2022-09-21T16:51:47.276Z,15.11
2022-09-21T16:57:06.294Z,14.7
2022-09-21T17:02:25.614Z,14.13
2022-09-21T17:07:44.125Z,13.5
2022-09-21T17:13:03.216Z,12.95
2022-09-21T17:18:22.702Z,12.66
2022-09-21T17:23:42.078Z,12.41
2022-09-21T17:29:01.630Z,12.08
2022-09-21T17:34:20.316Z,11.7
2022-09-21T17:39:39.300Z,11.65
2022-09-21T17:44:58.160Z,11.4
2022-09-21T17:50:16.931Z,10.97
2022-09-21T17:55:35.971Z,10.57
2022-09-21T18:00:55.247Z,10.2
2022-09-21T18:09:28.251Z,9.92
2022-09-21T18:11:32.171Z,9.57
2022-09-21T18:16:51.105Z,9.3
2022-09-21T18:22:10.628Z,9.28
2022-09-21T18:27:30.212Z,9.34
2022-09-21T18:34:28.741Z,9.32
2022-09-21T18:38:08.422Z,9.03
2022-09-21T18:45:07.122Z,8.75
2022-09-21T18:54:06.478Z,8.45
2022-09-21T18:59:27.372Z,8.31
2022-09-21T19:04:44.872Z,8.08
2022-09-21T19:10:03.955Z,7.89
2022-09-21T19:15:36.676Z,7.79
2022-09-21T19:20:42.403Z,7.74
2022-09-21T19:26:01.905Z,7.66
2022-09-21T19:31:21.273Z,7.49
2022-09-21T19:36:40.361Z,7.32
2022-09-21T19:41:59.716Z,7.18
2022-09-21T19:47:17.931Z,7.09
2022-09-21T19:52:37.613Z,7.08
2022-09-21T19:59:11.778Z,7.08
2022-09-21T20:03:16.222Z,7.02
2022-09-21T20:08:35.808Z,6.9
2022-09-21T20:13:54.258Z,6.63
2022-09-21T20:19:14.134Z,6.47
2022-09-21T20:24:33.233Z,6.41
2022-09-21T20:31:07.448Z,6.47
2022-09-21T20:40:32.689Z,6.34
2022-09-21T20:49:05.135Z,6.2
2022-09-21T20:58:08.324Z,5.88
2022-09-21T21:07:08.903Z,5.54
2022-09-21T21:12:27.358Z,5.47
2022-09-21T21:17:46.203Z,5.38
2022-09-21T21:23:07.278Z,5.38
2022-09-21T21:28:24.666Z,5.3
2022-09-21T21:33:43.170Z,5.26
2022-09-21T21:39:02.885Z,5.13
2022-09-21T21:44:21.434Z,5.07
2022-09-21T21:49:41.171Z,5.03
2022-09-21T21:56:15.327Z,5
2022-09-21T22:00:19.160Z,4.96
2022-09-21T22:05:38.722Z,4.85
2022-09-21T22:12:12.890Z,4.75
2022-09-21T22:21:37.547Z,4.42
2022-09-21T22:26:55.989Z,4.27
2022-09-21T22:32:14.878Z,4.38
2022-09-21T22:38:49.036Z,4.44
2022-09-21T22:42:52.701Z,4.41
2022-09-21T22:48:13.052Z,4.17
2022-09-21T22:54:47.217Z,4.14
2022-09-21T22:58:51.437Z,4.17
2022-09-21T23:04:11.040Z,4.17
2022-09-21T23:10:45.177Z,4.17
2022-09-21T23:14:51.110Z,4.13
2022-09-21T23:23:24.166Z,4.06
2022-09-21T23:31:57.289Z,4.01
2022-09-21T23:36:12.630Z,3.91
2022-09-21T23:43:11.192Z,3.99
2022-09-21T23:52:05.936Z,3.63
